Wetterdaten: Woche 01.08.22 - 07.08.22 (KW31)
Datum Zeit Temp. Aussen Temp. o. S. Temp +5cm Feuchte Auss Luftdruck Regen Sonnenschein Regendauer Solar Windben Empfang
01.08.2022 00:00 19,8 C 18,9 C 15,0 C 96 % 1016,4 hPa 0,0 l/m 0,00 h 0,03 h 0 W/m 7,8 km/h (2 Bft) 97,07 %
01.08.2022 01:00 19,6 C 18,9 C 15,0 C 96 % 1016,5 hPa 0,0 l/m 0,00 h 0,00 h 0 W/m 6,0 km/h (2 Bft) 97,70 %
01.08.2022 02:00 19,4 C 18,9 C 14,4 C 96 % 1016,6 hPa 0,0 l/m 0,00 h 0,00 h 0 W/m 7,8 km/h (2 Bft) 98,72 %
01.08.2022 03:00 19,3 C 18,9 C 14,8 C 95 % 1016,5 hPa 0,0 l/m 0,00 h 0,00 h 0 W/m 7,8 km/h (2 Bft) 96,09 %
01.08.2022 04:00 19,3 C 18,3 C 15,4 C 95 % 1016,4 hPa 0,0 l/m 0,00 h 0,00 h 0 W/m 7,5 km/h (2 Bft) 99,20 %
01.08.2022 05:00 19,2 C 18,3 C 15,4 C 95 % 1016,5 hPa 0,0 l/m 0,00 h 0,00 h 0 W/m 6,4 km/h (2 Bft) 97,50 %
01.08.2022 06:00 19,1 C 18,3 C 15,1 C 95 % 1016,7 hPa 0,0 l/m 0,00 h 0,00 h 8 W/m 4,8 km/h (1 Bft) 97,04 %
01.08.2022 07:00 19,2 C 18,6 C 15,4 C 96 % 1017,1 hPa 0,0 l/m 0,00 h 0,00 h 39 W/m 6,1 km/h (2 Bft) 97,86 %
01.08.2022 08:00 19,3 C 19,2 C 15,8 C 95 % 1017,3 hPa 0,0 l/m 0,00 h 0,00 h 94 W/m 7,5 km/h (2 Bft) 97,65 %
01.08.2022 09:00 20,3 C 21,1 C 17,3 C 90 % 1017,4 hPa 0,0 l/m 0,33 h 0,00 h 248 W/m 7,9 km/h (2 Bft) 96,94 %
01.08.2022 10:00 21,4 C 22,3 C 18,4 C 85 % 1017,6 hPa 0,0 l/m 0,87 h 0,00 h 400 W/m 10,2 km/h (2 Bft) 98,14 %
01.08.2022 11:00 22,6 C 23,7 C 19,1 C 80 % 1017,9 hPa 0,0 l/m 0,63 h 0,00 h 501 W/m 10,6 km/h (2 Bft) 96,87 %
01.08.2022 12:00 23,4 C 24,4 C 21,1 C 74 % 1017,9 hPa 0,0 l/m 0,43 h 0,00 h 525 W/m 11,3 km/h (2 Bft) 99,15 %
01.08.2022 13:00 24,7 C 25,9 C 21,1 C 66 % 1017,7 hPa 0,0 l/m 0,80 h 0,00 h 624 W/m 12,9 km/h (3 Bft) 95,14 %
01.08.2022 14:00 25,3 C 26,9 C 21,2 C 67 % 1017,8 hPa 0,0 l/m 0,80 h 0,00 h 710 W/m 14,8 km/h (3 Bft) 99,08 %
01.08.2022 15:00 25,4 C 26,2 C 21,2 C 67 % 1017,8 hPa 0,0 l/m 0,63 h 0,00 h 477 W/m 15,9 km/h (3 Bft) 96,53 %
01.08.2022 16:00 24,6 C 26,7 C 20,7 C 70 % 1017,9 hPa 0,0 l/m 0,93 h 0,00 h 510 W/m 16,5 km/h (3 Bft) 96,18 %
01.08.2022 17:00 24,7 C 26,9 C 20,8 C 68 % 1018,0 hPa 0,0 l/m 0,95 h 0,00 h 415 W/m 17,5 km/h (3 Bft) 98,04 %
01.08.2022 18:00 24,8 C 28,3 C 20,9 C 67 % 1018,2 hPa 0,0 l/m 0,92 h 0,00 h 401 W/m 15,0 km/h (3 Bft) 99,78 %
01.08.2022 19:00 23,8 C 24,1 C 19,1 C 67 % 1018,2 hPa 0,0 l/m 0,58 h 0,00 h 121 W/m 11,7 km/h (2 Bft) 97,37 %
01.08.2022 20:00 22,8 C 22,0 C 18,1 C 69 % 1018,4 hPa 0,0 l/m 0,00 h 0,00 h 31 W/m 6,9 km/h (2 Bft) 98,57 %
01.08.2022 21:00 21,8 C 20,2 C 16,5 C 73 % 1018,8 hPa 0,0 l/m 0,00 h 0,00 h 8 W/m 2,8 km/h (1 Bft) 96,23 %
01.08.2022 22:00 20,2 C 18,5 C 14,8 C 80 % 1019,2 hPa 0,0 l/m 0,00 h 0,00 h 0 W/m 0,2 km/h (0 Bft) 97,29 %
01.08.2022 23:00 18,7 C 17,2 C 13,7 C 84 % 1019,3 hPa 0,0 l/m 0,00 h 0,00 h 0 W/m 1,0 km/h (0 Bft) 98,43 %
02.08.2022 00:00 17,5 C 16,1 C 13,0 C 86 % 1019,4 hPa 0,0 l/m 0,00 h 0,00 h 0 W/m 1,0 km/h (0 Bft) 96,16 %
02.08.2022 01:00 16,5 C 15,3 C 12,1 C 88 % 1019,3 hPa 0,0 l/m 0,00 h 0,00 h 0 W/m 0,1 km/h (0 Bft) 96,57 %
02.08.2022 02:00 15,9 C 14,9 C 11,7 C 90 % 1019,2 hPa 0,0 l/m 0,00 h 0,00 h 0 W/m 0,0 km/h (0 Bft) 98,43 %
02.08.2022 03:00 15,6 C 14,7 C 11,6 C 90 % 1019,0 hPa 0,0 l/m 0,00 h 0,00 h 0 W/m 0,3 km/h (0 Bft) 97,30 %
02.08.2022 04:00 15,1 C 13,9 C 10,9 C 90 % 1018,7 hPa 0,0 l/m 0,00 h 0,00 h 0 W/m 0,0 km/h (0 Bft) 96,62 %
02.08.2022 05:00 14,6 C 13,4 C 10,6 C 92 % 1018,4 hPa 0,0 l/m 0,00 h 0,00 h 0 W/m 0,0 km/h (0 Bft) 96,87 %
02.08.2022 06:00 14,3 C 13,7 C 10,8 C 94 % 1018,4 hPa 0,0 l/m 0,00 h 0,00 h 17 W/m 0,4 km/h (0 Bft) 99,60 %
02.08.2022 07:00 15,1 C 15,2 C 12,1 C 95 % 1018,5 hPa 0,0 l/m 0,00 h 0,00 h 42 W/m 3,1 km/h (1 Bft) 96,05 %
02.08.2022 08:00 17,1 C 18,3 C 13,7 C 92 % 1018,4 hPa 0,0 l/m 0,70 h 0,00 h 229 W/m 7,6 km/h (2 Bft) 97,31 %
02.08.2022 09:00 20,6 C 25,1 C 18,2 C 80 % 1018,4 hPa 0,0 l/m 1,00 h 0,00 h 451 W/m 9,2 km/h (2 Bft) 98,64 %
02.08.2022 10:00 23,5 C 26,1 C 19,1 C 72 % 1018,1 hPa 0,0 l/m 1,00 h 0,00 h 614 W/m 11,2 km/h (2 Bft) 97,96 %
02.08.2022 11:00 25,7 C 26,8 C 21,6 C 65 % 1017,8 hPa 0,0 l/m 1,00 h 0,00 h 742 W/m 16,0 km/h (3 Bft) 96,66 %
02.08.2022 12:00 26,7 C 27,5 C 24,9 C 61 % 1017,6 hPa 0,0 l/m 0,70 h 0,00 h 581 W/m 16,7 km/h (3 Bft) 98,94 %
02.08.2022 13:00 27,4 C 27,7 C 23,2 C 57 % 1017,3 hPa 0,0 l/m 0,77 h 0,00 h 563 W/m 18,0 km/h (3 Bft) 97,22 %
02.08.2022 14:00 28,5 C 29,9 C 23,9 C 55 % 1017,1 hPa 0,0 l/m 1,00 h 0,00 h 752 W/m 16,6 km/h (3 Bft) 97,43 %
02.08.2022 15:00 29,2 C 30,7 C 24,4 C 53 % 1016,7 hPa 0,0 l/m 1,00 h 0,00 h 648 W/m 15,1 km/h (3 Bft) 97,09 %
02.08.2022 16:00 29,7 C 32,8 C 24,7 C 50 % 1016,3 hPa 0,0 l/m 1,00 h 0,00 h 642 W/m 16,1 km/h (3 Bft) 98,24 %
02.08.2022 17:00 30,0 C 34,1 C 25,2 C 50 % 1015,9 hPa 0,0 l/m 1,00 h 0,00 h 541 W/m 14,5 km/h (3 Bft) 97,73 %
02.08.2022 18:00 30,0 C 33,5 C 25,3 C 49 % 1015,5 hPa 0,0 l/m 1,00 h 0,00 h 369 W/m 13,4 km/h (3 Bft) 96,94 %
02.08.2022 19:00 29,4 C 29,5 C 24,1 C 50 % 1015,3 hPa 0,0 l/m 0,50 h 0,00 h 150 W/m 13,8 km/h (3 Bft) 99,22 %
02.08.2022 20:00 28,4 C 27,2 C 22,7 C 54 % 1015,4 hPa 0,0 l/m 0,00 h 0,00 h 21 W/m 7,6 km/h (2 Bft) 95,30 %
02.08.2022 21:00 26,7 C 24,9 C 20,3 C 61 % 1015,5 hPa 0,0 l/m 0,00 h 0,00 h 7 W/m 2,3 km/h (1 Bft) 98,50 %
02.08.2022 22:00 24,8 C 22,5 C 17,8 C 69 % 1015,7 hPa 0,0 l/m 0,00 h 0,00 h 0 W/m 0,0 km/h (0 Bft) 98,43 %
02.08.2022 23:00 23,1 C 21,3 C 17,2 C 75 % 1015,7 hPa 0,0 l/m 0,00 h 0,00 h 0 W/m 0,3 km/h (0 Bft) 95,87 %
03.08.2022 00:00 21,8 C 20,2 C 16,2 C 80 % 1015,8 hPa 0,0 l/m 0,00 h 0,00 h 0 W/m 0,0 km/h (0 Bft) 97,62 %
03.08.2022 01:00 21,1 C 19,8 C 15,8 C 82 % 1015,8 hPa 0,0 l/m 0,00 h 0,00 h 0 W/m 0,2 km/h (0 Bft) 99,43 %
03.08.2022 02:00 20,3 C 18,9 C 15,2 C 85 % 1015,7 hPa 0,0 l/m 0,00 h 0,00 h 0 W/m 0,0 km/h (0 Bft) 95,16 %
03.08.2022 03:00 19,6 C 18,4 C 14,8 C 87 % 1015,6 hPa 0,0 l/m 0,00 h 0,00 h 0 W/m 0,0 km/h (0 Bft) 98,93 %
03.08.2022 04:00 19,1 C 18,1 C 14,6 C 87 % 1015,4 hPa 0,0 l/m 0,00 h 0,00 h 0 W/m 0,1 km/h (0 Bft) 97,72 %
03.08.2022 05:00 18,5 C 17,3 C 14,1 C 89 % 1015,4 hPa 0,0 l/m 0,00 h 0,00 h 0 W/m 0,0 km/h (0 Bft) 96,90 %
03.08.2022 06:00 18,2 C 17,8 C 14,4 C 88 % 1015,5 hPa 0,0 l/m 0,00 h 0,00 h 14 W/m 0,0 km/h (0 Bft) 98,48 %
03.08.2022 07:00 18,8 C 18,5 C 15,3 C 87 % 1015,7 hPa 0,0 l/m 0,00 h 0,00 h 32 W/m 0,0 km/h (0 Bft) 96,80 %
03.08.2022 08:00 20,5 C 22,1 C 16,6 C 83 % 1015,8 hPa 0,0 l/m 0,70 h 0,00 h 251 W/m 0,0 km/h (0 Bft) 97,81 %
03.08.2022 09:00 24,7 C 31,0 C 22,1 C 72 % 1015,9 hPa 0,0 l/m 1,00 h 0,00 h 498 W/m 4,6 km/h (1 Bft) 98,29 %
03.08.2022 10:00 26,9 C 29,3 C 22,0 C 65 % 1015,9 hPa 0,0 l/m 1,00 h 0,00 h 647 W/m 10,9 km/h (2 Bft) 97,29 %
03.08.2022 11:00 28,6 C 29,6 C 23,5 C 59 % 1015,8 hPa 0,0 l/m 0,98 h 0,00 h 740 W/m 12,4 km/h (3 Bft) 97,35 %
03.08.2022 12:00 30,2 C 31,8 C 29,9 C 55 % 1015,6 hPa 0,0 l/m 1,00 h 0,00 h 843 W/m 14,0 km/h (3 Bft) 98,65 %
03.08.2022 13:00 31,3 C 32,3 C 26,3 C 52 % 1015,2 hPa 0,0 l/m 1,00 h 0,00 h 874 W/m 13,3 km/h (3 Bft) 97,58 %
03.08.2022 14:00 32,1 C 34,2 C 26,9 C 49 % 1014,9 hPa 0,0 l/m 1,00 h 0,00 h 823 W/m 13,3 km/h (3 Bft) 96,87 %
03.08.2022 15:00 33,1 C 35,5 C 27,5 C 45 % 1014,7 hPa 0,0 l/m 1,00 h 0,00 h 773 W/m 14,1 km/h (3 Bft) 98,37 %
03.08.2022 16:00 33,1 C 37,2 C 27,7 C 43 % 1014,3 hPa 0,0 l/m 0,93 h 0,00 h 707 W/m 12,7 km/h (3 Bft) 97,08 %
03.08.2022 17:00 33,1 C 37,4 C 28,1 C 45 % 1013,9 hPa 0,0 l/m 0,93 h 0,00 h 569 W/m 11,5 km/h (2 Bft) 97,23 %
03.08.2022 18:00 33,1 C 38,1 C 28,2 C 47 % 1013,6 hPa 0,0 l/m 0,97 h 0,00 h 385 W/m 11,3 km/h (2 Bft) 98,71 %
03.08.2022 19:00 32,7 C 33,0 C 26,6 C 48 % 1013,4 hPa 0,0 l/m 0,50 h 0,00 h 165 W/m 7,1 km/h (2 Bft) 96,65 %
03.08.2022 20:00 30,9 C 29,2 C 24,4 C 53 % 1013,5 hPa 0,0 l/m 0,00 h 0,00 h 23 W/m 3,0 km/h (1 Bft) 98,65 %
03.08.2022 21:00 29,0 C 26,9 C 21,9 C 59 % 1013,6 hPa 0,0 l/m 0,00 h 0,00 h 7 W/m 0,7 km/h (0 Bft) 96,01 %
03.08.2022 22:00 27,1 C 25,3 C 20,5 C 64 % 1013,7 hPa 0,0 l/m 0,00 h 0,00 h 0 W/m 1,2 km/h (1 Bft) 98,65 %
03.08.2022 23:00 25,7 C 23,8 C 19,5 C 70 % 1013,5 hPa 0,0 l/m 0,00 h 0,00 h 0 W/m 0,4 km/h (0 Bft) 98,79 %
04.08.2022 00:00 24,4 C 23,0 C 18,9 C 73 % 1013,5 hPa 0,0 l/m 0,00 h 0,00 h 0 W/m 0,7 km/h (0 Bft) 95,46 %
04.08.2022 01:00 23,4 C 22,0 C 18,0 C 77 % 1013,4 hPa 0,0 l/m 0,00 h 0,00 h 0 W/m 0,2 km/h (0 Bft) 98,15 %
04.08.2022 02:00 22,6 C 21,3 C 17,5 C 79 % 1013,2 hPa 0,0 l/m 0,00 h 0,00 h 0 W/m 0,1 km/h (0 Bft) 97,39 %
04.08.2022 03:00 22,1 C 21,1 C 17,3 C 79 % 1012,7 hPa 0,0 l/m 0,00 h 0,00 h 0 W/m 0,9 km/h (0 Bft) 95,12 %
04.08.2022 04:00 21,6 C 20,2 C 16,5 C 81 % 1012,4 hPa 0,0 l/m 0,00 h 0,00 h 0 W/m 0,0 km/h (0 Bft) 99,43 %
04.08.2022 05:00 20,8 C 19,2 C 15,9 C 83 % 1012,0 hPa 0,0 l/m 0,00 h 0,00 h 0 W/m 0,0 km/h (0 Bft) 97,73 %
04.08.2022 06:00 20,0 C 18,9 C 15,6 C 85 % 1012,0 hPa 0,0 l/m 0,00 h 0,00 h 15 W/m 0,1 km/h (0 Bft) 96,98 %
04.08.2022 07:00 20,7 C 20,7 C 17,2 C 84 % 1012,1 hPa 0,0 l/m 0,00 h 0,00 h 35 W/m 4,9 km/h (1 Bft) 98,65 %
04.08.2022 08:00 23,0 C 23,8 C 18,7 C 77 % 1012,0 hPa 0,0 l/m 0,73 h 0,00 h 272 W/m 7,8 km/h (2 Bft) 97,08 %
04.08.2022 09:00 26,9 C 31,4 C 23,5 C 65 % 1012,1 hPa 0,0 l/m 0,97 h 0,00 h 432 W/m 8,2 km/h (2 Bft) 96,94 %
04.08.2022 10:00 28,9 C 31,5 C 23,9 C 60 % 1012,1 hPa 0,0 l/m 0,77 h 0,00 h 492 W/m 7,2 km/h (2 Bft) 99,58 %
04.08.2022 11:00 30,9 C 31,9 C 26,3 C 55 % 1012,2 hPa 0,0 l/m 0,93 h 0,00 h 648 W/m 10,5 km/h (2 Bft) 96,15 %
04.08.2022 12:00 31,8 C 31,9 C 28,2 C 53 % 1012,6 hPa 0,0 l/m 0,60 h 0,00 h 450 W/m 12,9 km/h (3 Bft) 97,77 %
04.08.2022 13:00 31,0 C 30,4 C 26,6 C 54 % 1012,9 hPa 0,0 l/m 0,17 h 0,03 h 315 W/m 15,7 km/h (3 Bft) 98,65 %
04.08.2022 14:00 29,6 C 29,6 C 25,4 C 60 % 1013,1 hPa 0,0 l/m 0,60 h 0,00 h 378 W/m 15,6 km/h (3 Bft) 95,52 %
04.08.2022 15:00 29,7 C 29,6 C 25,3 C 61 % 1013,1 hPa 0,0 l/m 0,00 h 0,00 h 274 W/m 10,6 km/h (2 Bft) 99,64 %
04.08.2022 16:00 29,3 C 28,4 C 24,4 C 62 % 1013,0 hPa 0,0 l/m 0,00 h 0,00 h 156 W/m 9,2 km/h (2 Bft) 97,52 %
04.08.2022 17:00 28,4 C 27,5 C 23,5 C 65 % 1013,1 hPa 0,0 l/m 0,00 h 0,00 h 122 W/m 12,6 km/h (3 Bft) 96,93 %
04.08.2022 18:00 27,9 C 29,7 C 23,5 C 69 % 1013,0 hPa 0,0 l/m 0,70 h 0,00 h 260 W/m 16,0 km/h (3 Bft) 98,60 %
04.08.2022 19:00 27,4 C 27,2 C 22,5 C 67 % 1012,9 hPa 0,0 l/m 0,33 h 0,00 h 121 W/m 12,6 km/h (3 Bft) 97,80 %
04.08.2022 20:00 26,5 C 25,4 C 21,6 C 70 % 1013,2 hPa 0,0 l/m 0,00 h 0,00 h 32 W/m 6,0 km/h (2 Bft) 96,66 %
04.08.2022 21:00 25,5 C 23,9 C 20,4 C 71 % 1013,7 hPa 0,0 l/m 0,00 h 0,00 h 4 W/m 5,0 km/h (1 Bft) 99,07 %
04.08.2022 22:00 24,3 C 22,9 C 19,3 C 75 % 1014,3 hPa 0,0 l/m 0,00 h 0,00 h 0 W/m 7,8 km/h (2 Bft) 96,90 %
04.08.2022 23:00 23,2 C 22,3 C 18,8 C 71 % 1015,3 hPa 0,0 l/m 0,00 h 0,12 h 0 W/m 15,5 km/h (3 Bft) 98,49 %
05.08.2022 00:00 21,4 C 20,1 C 16,4 C 81 % 1014,9 hPa 0,0 l/m 0,00 h 0,33 h 0 W/m 12,0 km/h (2 Bft) 96,91 %
05.08.2022 01:00 19,8 C 18,9 C 15,6 C 88 % 1013,8 hPa 0,0 l/m 0,00 h 0,00 h 0 W/m 6,3 km/h (2 Bft) 99,00 %
05.08.2022 02:00 19,3 C 18,2 C 15,0 C 90 % 1014,1 hPa 0,0 l/m 0,00 h 0,00 h 0 W/m 7,5 km/h (2 Bft) 96,51 %
05.08.2022 03:00 18,4 C 17,4 C 14,4 C 93 % 1014,2 hPa 0,0 l/m 0,00 h 0,03 h 0 W/m 11,3 km/h (2 Bft) 98,26 %
05.08.2022 04:00 18,3 C 16,9 C 13,7 C 95 % 1015,0 hPa 3,6 l/m 0,00 h 0,90 h 0 W/m 6,9 km/h (2 Bft) 97,43 %
05.08.2022 05:00 18,1 C 16,9 C 13,5 C 97 % 1014,3 hPa 0,0 l/m 0,00 h 0,03 h 0 W/m 5,8 km/h (2 Bft) 97,57 %
05.08.2022 06:00 18,0 C 17,1 C 13,4 C 97 % 1014,4 hPa 0,0 l/m 0,00 h 0,03 h 14 W/m 6,0 km/h (2 Bft) 96,95 %
05.08.2022 07:00 17,7 C 17,1 C 13,2 C 98 % 1014,7 hPa 0,0 l/m 0,00 h 0,00 h 25 W/m 10,1 km/h (2 Bft) 98,07 %
05.08.2022 08:00 16,9 C 16,7 C 12,3 C 97 % 1015,2 hPa 0,0 l/m 0,00 h 0,00 h 34 W/m 10,5 km/h (2 Bft) 97,55 %
05.08.2022 09:00 16,9 C 16,6 C 12,3 C 95 % 1016,0 hPa 0,0 l/m 0,00 h 0,00 h 45 W/m 10,4 km/h (2 Bft) 97,22 %
05.08.2022 10:00 16,9 C 16,7 C 13,1 C 94 % 1016,7 hPa 0,0 l/m 0,00 h 0,00 h 57 W/m 7,8 km/h (2 Bft) 97,35 %
05.08.2022 11:00 17,7 C 18,0 C 14,3 C 91 % 1017,5 hPa 0,0 l/m 0,10 h 0,00 h 193 W/m 9,7 km/h (2 Bft) 97,79 %
05.08.2022 12:00 19,7 C 21,1 C 17,3 C 84 % 1018,2 hPa 0,0 l/m 0,68 h 0,00 h 426 W/m 12,0 km/h (2 Bft) 97,87 %
05.08.2022 13:00 21,5 C 22,8 C 17,8 C 77 % 1018,5 hPa 0,0 l/m 0,53 h 0,00 h 510 W/m 11,8 km/h (2 Bft) 98,08 %
05.08.2022 14:00 22,6 C 23,6 C 18,1 C 72 % 1018,8 hPa 0,0 l/m 0,27 h 0,17 h 351 W/m 12,1 km/h (2 Bft) 97,05 %
05.08.2022 15:00 21,2 C 21,5 C 17,1 C 78 % 1019,6 hPa 0,0 l/m 0,17 h 0,07 h 266 W/m 10,5 km/h (2 Bft) 97,72 %
05.08.2022 16:00 22,8 C 24,4 C 18,6 C 65 % 1019,7 hPa 0,0 l/m 0,20 h 0,00 h 310 W/m 12,8 km/h (3 Bft) 99,36 %
05.08.2022 17:00 22,8 C 23,4 C 18,4 C 56 % 1020,0 hPa 0,0 l/m 0,10 h 0,00 h 220 W/m 17,1 km/h (3 Bft) 95,65 %
05.08.2022 18:00 23,4 C 27,6 C 19,4 C 52 % 1020,4 hPa 0,0 l/m 0,95 h 0,00 h 396 W/m 16,1 km/h (3 Bft) 98,55 %
05.08.2022 19:00 22,4 C 22,5 C 17,7 C 54 % 1021,0 hPa 0,0 l/m 0,43 h 0,00 h 146 W/m 16,8 km/h (3 Bft) 98,65 %
05.08.2022 20:00 20,7 C 19,8 C 16,1 C 60 % 1021,9 hPa 0,0 l/m 0,00 h 0,00 h 25 W/m 15,9 km/h (3 Bft) 95,66 %
05.08.2022 21:00 19,3 C 18,2 C 14,6 C 64 % 1022,8 hPa 0,0 l/m 0,00 h 0,00 h 9 W/m 11,6 km/h (2 Bft) 98,79 %
05.08.2022 22:00 17,8 C 16,7 C 13,3 C 70 % 1023,7 hPa 0,0 l/m 0,00 h 0,00 h 0 W/m 8,9 km/h (2 Bft) 98,96 %
05.08.2022 23:00 16,5 C 15,0 C 11,8 C 74 % 1024,3 hPa 0,0 l/m 0,00 h 0,00 h 0 W/m 3,5 km/h (1 Bft) 95,12 %
06.08.2022 00:00 15,0 C 13,6 C 10,6 C 79 % 1024,8 hPa 0,0 l/m 0,00 h 0,00 h 0 W/m 0,6 km/h (0 Bft) 95,50 %
06.08.2022 01:00 14,0 C 12,7 C 9,7 C 82 % 1025,3 hPa 0,0 l/m 0,00 h 0,00 h 0 W/m 2,2 km/h (1 Bft) 97,08 %
06.08.2022 02:00 13,2 C 12,0 C 9,0 C 83 % 1025,7 hPa 0,0 l/m 0,00 h 0,00 h 0 W/m 0,4 km/h (0 Bft) 97,44 %
06.08.2022 03:00 12,6 C 11,6 C 8,7 C 85 % 1026,1 hPa 0,0 l/m 0,00 h 0,00 h 0 W/m 1,7 km/h (1 Bft) 96,58 %
06.08.2022 04:00 12,1 C 11,1 C 8,1 C 87 % 1026,4 hPa 0,0 l/m 0,00 h 0,00 h 0 W/m 1,5 km/h (1 Bft) 98,50 %
06.08.2022 05:00 11,5 C 10,7 C 7,8 C 89 % 1026,8 hPa 0,0 l/m 0,00 h 0,00 h 0 W/m 0,7 km/h (0 Bft) 98,22 %
06.08.2022 06:00 11,2 C 10,6 C 7,4 C 90 % 1027,0 hPa 0,0 l/m 0,00 h 0,00 h 11 W/m 1,6 km/h (1 Bft) 98,17 %
06.08.2022 07:00 11,6 C 11,4 C 8,4 C 91 % 1027,6 hPa 0,0 l/m 0,00 h 0,00 h 25 W/m 1,5 km/h (1 Bft) 96,38 %
06.08.2022 08:00 13,2 C 13,9 C 9,9 C 90 % 1027,9 hPa 0,0 l/m 0,70 h 0,00 h 255 W/m 5,6 km/h (1 Bft) 98,38 %
06.08.2022 09:00 16,9 C 22,7 C 14,6 C 77 % 1028,2 hPa 0,0 l/m 0,93 h 0,00 h 445 W/m 7,3 km/h (2 Bft) 97,26 %
06.08.2022 10:00 18,5 C 21,3 C 14,6 C 69 % 1028,4 hPa 0,0 l/m 0,97 h 0,00 h 598 W/m 9,2 km/h (2 Bft) 99,01 %
06.08.2022 11:00 19,6 C 21,3 C 15,9 C 64 % 1028,4 hPa 0,0 l/m 0,83 h 0,00 h 609 W/m 10,9 km/h (2 Bft) 98,15 %
06.08.2022 12:00 20,5 C 22,7 C 18,9 C 60 % 1028,3 hPa 0,0 l/m 0,87 h 0,00 h 779 W/m 15,5 km/h (3 Bft) 96,09 %
06.08.2022 13:00 21,2 C 22,4 C 17,3 C 56 % 1028,1 hPa 0,0 l/m 0,60 h 0,00 h 645 W/m 9,8 km/h (2 Bft) 97,19 %
06.08.2022 14:00 21,3 C 22,5 C 17,1 C 57 % 1027,8 hPa 0,0 l/m 0,27 h 0,00 h 406 W/m 9,1 km/h (2 Bft) 98,86 %
06.08.2022 15:00 21,6 C 22,6 C 17,3 C 55 % 1027,5 hPa 0,0 l/m 0,23 h 0,00 h 322 W/m 8,3 km/h (2 Bft) 96,94 %
06.08.2022 16:00 22,0 C 25,0 C 17,7 C 54 % 1027,2 hPa 0,0 l/m 0,47 h 0,00 h 396 W/m 9,1 km/h (2 Bft) 97,94 %
06.08.2022 17:00 23,1 C 26,3 C 18,7 C 51 % 1026,6 hPa 0,0 l/m 0,53 h 0,00 h 369 W/m 6,0 km/h (2 Bft) 97,15 %
06.08.2022 18:00 23,6 C 28,5 C 19,8 C 49 % 1026,4 hPa 0,0 l/m 0,93 h 0,00 h 431 W/m 14,2 km/h (3 Bft) 99,00 %
06.08.2022 19:00 22,3 C 22,5 C 17,6 C 52 % 1026,3 hPa 0,0 l/m 0,40 h 0,00 h 136 W/m 11,5 km/h (2 Bft) 96,22 %
06.08.2022 20:00 20,9 C 19,8 C 16,0 C 56 % 1026,3 hPa 0,0 l/m 0,00 h 0,00 h 20 W/m 4,1 km/h (1 Bft) 98,29 %
06.08.2022 21:00 19,5 C 18,3 C 14,7 C 60 % 1026,6 hPa 0,0 l/m 0,00 h 0,00 h 5 W/m 3,7 km/h (1 Bft) 97,86 %
06.08.2022 22:00 18,3 C 16,8 C 13,1 C 66 % 1026,9 hPa 0,0 l/m 0,00 h 0,00 h 0 W/m 0,9 km/h (0 Bft) 97,93 %
06.08.2022 23:00 17,3 C 16,0 C 12,4 C 70 % 1027,0 hPa 0,0 l/m 0,00 h 0,00 h 0 W/m 1,5 km/h (1 Bft) 96,80 %
07.08.2022 00:00 15,9 C 14,2 C 11,0 C 77 % 1026,8 hPa 0,0 l/m 0,00 h 0,00 h 0 W/m 0,0 km/h (0 Bft) 94,41 %
07.08.2022 01:00 14,6 C 13,2 C 10,1 C 81 % 1026,6 hPa 0,0 l/m 0,00 h 0,00 h 0 W/m 0,1 km/h (0 Bft) 99,43 %
07.08.2022 02:00 13,7 C 12,6 C 9,5 C 83 % 1026,4 hPa 0,0 l/m 0,00 h 0,00 h 0 W/m 0,7 km/h (0 Bft) 95,73 %
07.08.2022 03:00 13,1 C 11,9 C 9,0 C 85 % 1026,0 hPa 0,0 l/m 0,00 h 0,00 h 0 W/m 0,2 km/h (0 Bft) 98,01 %
07.08.2022 04:00 12,4 C 11,4 C 8,5 C 87 % 1025,8 hPa 0,0 l/m 0,00 h 0,00 h 0 W/m 0,6 km/h (0 Bft) 97,88 %
07.08.2022 05:00 11,9 C 11,0 C 8,0 C 89 % 1025,7 hPa 0,0 l/m 0,00 h 0,00 h 0 W/m 0,4 km/h (0 Bft) 98,28 %
07.08.2022 06:00 11,6 C 10,8 C 7,8 C 91 % 1025,6 hPa 0,0 l/m 0,00 h 0,00 h 11 W/m 0,9 km/h (0 Bft) 95,83 %
07.08.2022 07:00 11,8 C 11,7 C 8,6 C 92 % 1025,9 hPa 0,0 l/m 0,00 h 0,00 h 24 W/m 1,5 km/h (1 Bft) 97,37 %
07.08.2022 08:00 13,2 C 14,6 C 10,7 C 93 % 1026,1 hPa 0,0 l/m 0,67 h 0,00 h 236 W/m 1,8 km/h (1 Bft) 98,29 %
07.08.2022 09:00 18,4 C 25,4 C 15,7 C 72 % 1026,0 hPa 0,0 l/m 1,00 h 0,00 h 491 W/m 3,9 km/h (1 Bft) 95,38 %
07.08.2022 10:00 20,9 C 24,1 C 15,6 C 57 % 1025,7 hPa 0,0 l/m 1,00 h 0,00 h 651 W/m 5,2 km/h (1 Bft) 98,66 %
07.08.2022 11:00 22,6 C 24,1 C 17,5 C 49 % 1025,4 hPa 0,0 l/m 1,00 h 0,00 h 773 W/m 7,8 km/h (2 Bft) 98,59 %
07.08.2022 12:00 24,4 C 26,9 C 22,3 C 46 % 1024,9 hPa 0,0 l/m 1,00 h 0,00 h 852 W/m 10,0 km/h (2 Bft) 97,69 %
07.08.2022 13:00 25,0 C 26,1 C 19,4 C 44 % 1024,3 hPa 0,0 l/m 1,00 h 0,00 h 881 W/m 12,2 km/h (3 Bft) 96,80 %
07.08.2022 14:00 25,7 C 28,9 C 20,0 C 43 % 1023,9 hPa 0,0 l/m 1,00 h 0,00 h 866 W/m 10,2 km/h (2 Bft) 98,50 %
07.08.2022 15:00 26,5 C 29,5 C 20,6 C 42 % 1023,5 hPa 0,0 l/m 1,00 h 0,00 h 798 W/m 12,3 km/h (3 Bft) 97,29 %
07.08.2022 16:00 26,6 C 31,6 C 21,1 C 43 % 1023,1 hPa 0,0 l/m 1,00 h 0,00 h 690 W/m 12,4 km/h (3 Bft) 97,65 %
07.08.2022 17:00 26,2 C 31,4 C 21,9 C 44 % 1022,8 hPa 0,0 l/m 1,00 h 0,00 h 547 W/m 16,3 km/h (3 Bft) 97,30 %
07.08.2022 18:00 25,5 C 29,6 C 21,4 C 46 % 1022,5 hPa 0,0 l/m 1,00 h 0,00 h 347 W/m 15,4 km/h (3 Bft) 98,82 %
07.08.2022 19:00 24,2 C 23,9 C 19,4 C 49 % 1022,5 hPa 0,0 l/m 0,37 h 0,00 h 113 W/m 13,6 km/h (3 Bft) 96,23 %
07.08.2022 20:00 22,7 C 21,7 C 17,9 C 52 % 1022,7 hPa 0,0 l/m 0,27 h 0,00 h 30 W/m 10,6 km/h (2 Bft) 97,86 %
07.08.2022 21:00 21,4 C 20,0 C 16,3 C 58 % 1023,2 hPa 0,0 l/m 0,00 h 0,00 h 11 W/m 4,7 km/h (1 Bft) 99,22 %
07.08.2022 22:00 20,1 C 18,7 C 15,2 C 61 % 1023,5 hPa 0,0 l/m 0,00 h 0,00 h 0 W/m 3,9 km/h (1 Bft) 95,31 %
07.08.2022 23:00 19,2 C 18,2 C 14,6 C 65 % 1023,8 hPa 0,0 l/m 0,00 h 0,00 h 0 W/m 5,6 km/h (1 Bft) 99,01 %
Min-Datum _ 06.08.22 06.08.22 06.08.22 07.08.22 04.08.22 - - - - 01.08.22 07.08.22
_ Min-Zeit 06:26 04:54 06:08 15:18 05:48 - - - - 21:30 00:02
Minimum _ 11,1 C 10,6 C 7,2 C 41 % 1011,9 hPa - - - - 0,0 km/h (0 Bft) 12,50 %
Max-Datum _ 03.08.22 03.08.22 03.08.22 05.08.22 06.08.22 05.08.22 01.08.22 04.08.22 05.08.22 02.08.22 01.08.22
_ Max-Zeit 16:50 16:44 12:28 06:34 12:24 04:18 17:20 23:56 13:46 14:14 01:40
Maximum _ 33,6 C 39,4 C 33,9 C 98 % 1028,5 hPa 3,6 l/m 0,08 h 0,08 h 1130 W/m 38,6 km/h
SO (5 Bft)
100,00 %
Durchschnitt _ 21,9 C 22,2 C 17,5 C 72 % 1018,9 hPa #3,6 l/m #57:50 h #1:47 h 345 W/m 7,5 km/h (2 Bft) 97,57 %
© 2022 W. Hausmann